createdAt,value
2023-03-29T00:00:36.858Z,101314.41
2023-03-29T00:01:42.001Z,101315.22
2023-03-29T00:02:48.825Z,101320.53
2023-03-29T00:03:52.009Z,101313.47
2023-03-29T00:04:54.474Z,101309.97
2023-03-29T00:06:05.610Z,101312.59
2023-03-29T00:07:07.832Z,101308.16
2023-03-29T00:08:14.671Z,101308.19
2023-03-29T00:09:18.316Z,101301.19
2023-03-29T00:10:23.959Z,101297.66
2023-03-29T00:11:27.387Z,101297.66
2023-03-29T00:12:29.555Z,101300.28
2023-03-29T00:13:31.921Z,101298.53
2023-03-29T00:14:34.241Z,101297.66
2023-03-29T00:15:36.450Z,101290.63
2023-03-29T00:16:38.749Z,101295.91
2023-03-29T00:17:41.517Z,101294.13
2023-03-29T00:18:44.703Z,101285.34
2023-03-29T00:19:50.006Z,101300.31
2023-03-29T00:20:59.835Z,101289.72
2023-03-29T00:22:05.865Z,101289.75
2023-03-29T00:23:08.470Z,101295.03
2023-03-29T00:24:10.780Z,101296.81
2023-03-29T00:25:13.882Z,101289.81
2023-03-29T00:26:16.698Z,101289.84
2023-03-29T00:27:18.871Z,101296.94
2023-03-29T00:28:21.450Z,101297.00
2023-03-29T00:29:23.684Z,101293.44
2023-03-29T00:30:26.172Z,101289.13
2023-03-29T00:31:28.642Z,101289.06
2023-03-29T00:32:32.282Z,101289.91
2023-03-29T00:33:34.979Z,101290.78
2023-03-29T00:34:37.254Z,101298.69
2023-03-29T00:35:39.760Z,101283.66
2023-03-29T00:36:43.176Z,101283.66
2023-03-29T00:37:47.227Z,101284.56
2023-03-29T00:38:49.651Z,101288.91
2023-03-29T00:39:52.572Z,101282.69
2023-03-29T00:40:54.955Z,101284.44
2023-03-29T00:41:57.114Z,101286.19
2023-03-29T00:43:00.538Z,101288.81
2023-03-29T00:44:04.676Z,101286.16
2023-03-29T00:45:09.670Z,101290.47
2023-03-29T00:46:12.084Z,101287.84
2023-03-29T00:47:14.525Z,101273.75
2023-03-29T00:48:24.567Z,101275.47
2023-03-29T00:49:27.478Z,101285.19
2023-03-29T00:50:36.241Z,101280.88
2023-03-29T00:51:41.426Z,101283.50
2023-03-29T00:52:48.674Z,101287.03
2023-03-29T00:53:56.302Z,101284.31
2023-03-29T00:55:01.551Z,101284.34
2023-03-29T00:56:14.006Z,101291.31
2023-03-29T00:57:19.206Z,101273.66
2023-03-29T00:58:40.613Z,101275.41
2023-03-29T00:59:44.859Z,101278.91
2023-03-29T01:01:02.220Z,101271.94
2023-03-29T01:02:07.224Z,101274.56
2023-03-29T01:03:13.756Z,101270.13
2023-03-29T01:04:24.264Z,101268.38
2023-03-29T01:05:31.577Z,101273.63
2023-03-29T01:06:39.263Z,101266.66
2023-03-29T01:07:57.894Z,101265.81
2023-03-29T01:09:03.338Z,101269.34
2023-03-29T01:10:31.688Z,101266.69
2023-03-29T01:11:51.378Z,101265.69
2023-03-29T01:13:00.454Z,101273.63
2023-03-29T01:14:12.526Z,101262.19
2023-03-29T01:15:19.938Z,101273.59
2023-03-29T01:16:25.733Z,101271.91
2023-03-29T01:17:31.622Z,101271.97
2023-03-29T01:18:34.035Z,101259.75
2023-03-29T01:19:44.258Z,101270.34
2023-03-29T01:20:56.320Z,101261.59
2023-03-29T01:22:32.152Z,101259.81
2023-03-29T01:23:51.051Z,101262.44
2023-03-29T01:25:00.989Z,101255.38
2023-03-29T01:26:17.387Z,101258.03
2023-03-29T01:27:47.433Z,101259.81
2023-03-29T01:28:57.584Z,101257.19
2023-03-29T01:30:05.675Z,101251.03
2023-03-29T01:31:17.452Z,101256.31
2023-03-29T01:32:27.978Z,101247.44
2023-03-29T01:33:49.324Z,101254.50
2023-03-29T01:35:00.143Z,101251.88
2023-03-29T01:36:27.114Z,101251.81
2023-03-29T01:37:37.567Z,101246.53
2023-03-29T01:38:50.688Z,101244.78
2023-03-29T01:39:53.603Z,101244.84
2023-03-29T01:40:55.961Z,101238.69
2023-03-29T01:42:16.786Z,101238.66
2023-03-29T01:43:51.398Z,101235.13
2023-03-29T01:45:15.474Z,101231.59
2023-03-29T01:46:36.336Z,101229.84
2023-03-29T01:47:46.432Z,101224.53
2023-03-29T01:48:59.545Z,101221.88
2023-03-29T01:50:13.460Z,101219.19
2023-03-29T01:51:32.163Z,101212.97
2023-03-29T01:52:49.494Z,101220.06
2023-03-29T01:54:03.134Z,101214.75
2023-03-29T01:55:20.666Z,101210.44
2023-03-29T01:56:28.174Z,101209.56
2023-03-29T01:57:33.559Z,101206.03
2023-03-29T01:58:40.927Z,101204.31
2023-03-29T01:59:47.270Z,101196.31
2023-03-29T02:00:54.136Z,101197.22
2023-03-29T02:02:00.535Z,101198.06
2023-03-29T02:03:09.005Z,101194.66
2023-03-29T02:04:14.197Z,101191.09
2023-03-29T02:05:17.920Z,101204.34
2023-03-29T02:06:23.854Z,101204.38
2023-03-29T02:07:30.679Z,101203.50
2023-03-29T02:08:33.033Z,101193.84
2023-03-29T02:09:37.756Z,101195.66
2023-03-29T02:10:40.776Z,101189.44
2023-03-29T02:11:44.873Z,101188.50
2023-03-29T02:12:47.768Z,101190.25
2023-03-29T02:13:49.934Z,101197.31
2023-03-29T02:14:52.161Z,101183.13
2023-03-29T02:15:54.886Z,101181.44
2023-03-29T02:16:57.124Z,101180.56
2023-03-29T02:17:59.650Z,101180.59
2023-03-29T02:19:02.822Z,101178.84
2023-03-29T02:20:14.722Z,101174.41
2023-03-29T02:21:40.553Z,101181.53
2023-03-29T02:23:05.863Z,101171.88
2023-03-29T02:24:13.367Z,101172.75
2023-03-29T02:25:17.556Z,101157.78
2023-03-29T02:26:20.727Z,101162.13
2023-03-29T02:27:22.988Z,101156.84
2023-03-29T02:28:27.023Z,101156.81
2023-03-29T02:29:29.642Z,101153.34
2023-03-29T02:31:03.602Z,101151.56
2023-03-29T02:32:16.750Z,101148.97
2023-03-29T02:33:31.202Z,101143.69
2023-03-29T02:35:00.124Z,101148.16
2023-03-29T02:36:08.547Z,101142.91
2023-03-29T02:37:15.698Z,101146.41
2023-03-29T02:38:18.791Z,101143.72
2023-03-29T02:39:22.881Z,101142.00
2023-03-29T02:40:27.279Z,101139.34
2023-03-29T02:41:29.937Z,101138.50
2023-03-29T02:42:32.171Z,101140.22
2023-03-29T02:43:36.645Z,101137.56
2023-03-29T02:44:41.992Z,101133.19
2023-03-29T02:45:45.982Z,101134.03
2023-03-29T02:46:52.531Z,101124.34
2023-03-29T02:48:03.428Z,101122.53
2023-03-29T02:49:05.794Z,101119.03
2023-03-29T02:50:08.694Z,101120.81
2023-03-29T02:51:24.625Z,101120.88
2023-03-29T02:52:34.215Z,101112.03
2023-03-29T02:53:45.864Z,101115.56
2023-03-29T02:54:51.307Z,101115.53
2023-03-29T02:55:53.870Z,101119.97
2023-03-29T02:57:03.760Z,101110.31
2023-03-29T02:58:08.827Z,101101.50
2023-03-29T02:59:12.832Z,101105.84
2023-03-29T03:00:19.699Z,101103.22
2023-03-29T03:01:23.212Z,101101.47
2023-03-29T03:02:26.219Z,101111.16
2023-03-29T03:03:29.841Z,101106.78
2023-03-29T03:04:35.725Z,101124.41
2023-03-29T03:05:38.827Z,101116.50
2023-03-29T03:06:42.168Z,101116.50
2023-03-29T03:07:46.185Z,101110.38
2023-03-29T03:08:49.200Z,101118.28
2023-03-29T03:09:51.921Z,101110.34
2023-03-29T03:10:54.335Z,101111.28
2023-03-29T03:11:56.987Z,101111.28
2023-03-29T03:13:01.096Z,101115.69
2023-03-29T03:14:06.806Z,101121.00
2023-03-29T03:15:10.561Z,101108.66
2023-03-29T03:16:15.421Z,101110.41
2023-03-29T03:17:19.021Z,101114.78
2023-03-29T03:18:23.393Z,101118.31
2023-03-29T03:19:25.931Z,101121.81
2023-03-29T03:20:28.315Z,101114.78
2023-03-29T03:21:31.183Z,101115.69
2023-03-29T03:22:35.079Z,101113.03
2023-03-29T03:23:37.365Z,101105.13
2023-03-29T03:24:41.486Z,101106.00
2023-03-29T03:25:44.983Z,101106.00
2023-03-29T03:26:47.628Z,101107.75
2023-03-29T03:27:50.888Z,101105.97
2023-03-29T03:28:56.802Z,101101.53
2023-03-29T03:30:31.637Z,101114.75
2023-03-29T03:31:57.156Z,101105.97
2023-03-29T03:33:30.353Z,101105.94
2023-03-29T03:35:02.685Z,101098.00
2023-03-29T03:36:06.498Z,101103.25
2023-03-29T03:37:12.329Z,101097.91
2023-03-29T03:38:15.299Z,101097.03
2023-03-29T03:39:19.308Z,101098.75
2023-03-29T03:40:22.097Z,101097.91
2023-03-29T03:41:26.140Z,101100.56
2023-03-29T03:42:29.834Z,101095.25
2023-03-29T03:43:33.930Z,101102.31
2023-03-29T03:44:36.545Z,101093.47
2023-03-29T03:45:59.285Z,101095.22
2023-03-29T03:47:01.701Z,101097.03
2023-03-29T03:48:04.267Z,101095.22
2023-03-29T03:49:22.427Z,101089.94
2023-03-29T03:50:24.798Z,101096.16
2023-03-29T03:51:27.234Z,101090.84
2023-03-29T03:52:30.043Z,101092.59
2023-03-29T03:53:32.249Z,101090.81
2023-03-29T03:54:50.297Z,101097.84
2023-03-29T03:56:13.961Z,101095.25
2023-03-29T03:57:40.041Z,101088.22
2023-03-29T03:58:47.620Z,101095.28
2023-03-29T03:59:53.125Z,101098.78
2023-03-29T04:01:02.292Z,101088.19
2023-03-29T04:02:15.917Z,101088.19
2023-03-29T04:03:19.917Z,101089.09
2023-03-29T04:04:23.613Z,101086.44
2023-03-29T04:05:47.103Z,101082.91
2023-03-29T04:06:50.898Z,101089.94
2023-03-29T04:08:09.323Z,101085.53
2023-03-29T04:09:33.413Z,101080.22
2023-03-29T04:10:59.946Z,101083.75
2023-03-29T04:12:10.715Z,101070.56
2023-03-29T04:13:14.859Z,101073.22
2023-03-29T04:14:40.418Z,101061.78
2023-03-29T04:15:49.756Z,101069.72
2023-03-29T04:16:53.314Z,101061.78
2023-03-29T04:18:18.373Z,101065.25
2023-03-29T04:19:27.039Z,101065.28
2023-03-29T04:20:29.774Z,101063.53
2023-03-29T04:21:34.448Z,101065.31
2023-03-29T04:22:36.897Z,101054.75
2023-03-29T04:23:39.201Z,101057.41
2023-03-29T04:24:41.589Z,101052.13
2023-03-29T04:26:06.511Z,101048.63
2023-03-29T04:27:21.012Z,101043.34
2023-03-29T04:28:23.579Z,101045.97
2023-03-29T04:29:44.971Z,101046.91
2023-03-29T04:31:01.680Z,101049.53
2023-03-29T04:32:13.304Z,101038.13
2023-03-29T04:33:38.713Z,101037.22
2023-03-29T04:34:40.955Z,101041.63
2023-03-29T04:35:43.492Z,101041.66
2023-03-29T04:36:52.326Z,101049.56
2023-03-29T04:37:58.395Z,101038.06
2023-03-29T04:39:01.844Z,101045.09
2023-03-29T04:40:08.703Z,101042.50
2023-03-29T04:41:23.772Z,101046.91
2023-03-29T04:42:39.463Z,101041.63
2023-03-29T04:43:46.803Z,101046.03
2023-03-29T04:44:57.502Z,101041.63
2023-03-29T04:46:15.628Z,101048.69
2023-03-29T04:47:32.800Z,101038.97
2023-03-29T04:48:45.529Z,101044.28
2023-03-29T04:49:48.617Z,101039.84
2023-03-29T04:50:59.846Z,101042.47
2023-03-29T04:52:02.228Z,101045.13
2023-03-29T04:53:07.412Z,101046.91
2023-03-29T04:54:10.502Z,101044.25
2023-03-29T04:55:30.945Z,101041.63
2023-03-29T04:56:37.988Z,101052.19
2023-03-29T04:58:07.898Z,101048.69
2023-03-29T04:59:12.715Z,101043.41
2023-03-29T05:00:15.749Z,101047.84
2023-03-29T05:01:33.613Z,101043.44
2023-03-29T05:02:36.730Z,101049.63
2023-03-29T05:03:39.505Z,101043.44
2023-03-29T05:04:53.892Z,101041.66
2023-03-29T05:06:01.835Z,101046.09
2023-03-29T05:07:04.504Z,101044.31
2023-03-29T05:08:07.390Z,101039.03
2023-03-29T05:09:19.979Z,101037.28
2023-03-29T05:10:26.620Z,101034.63
2023-03-29T05:11:29.343Z,101033.75
2023-03-29T05:12:31.601Z,101035.53
2023-03-29T05:13:34.469Z,101027.56
2023-03-29T05:14:37.020Z,101029.34
2023-03-29T05:15:41.229Z,101033.75
2023-03-29T05:16:44.171Z,101037.28
2023-03-29T05:17:47.726Z,101028.47
2023-03-29T05:18:51.744Z,101027.56
2023-03-29T05:19:54.908Z,101028.47
2023-03-29T05:21:00.421Z,101032.88
2023-03-29T05:22:03.870Z,101022.28
2023-03-29T05:23:07.957Z,101031.09
2023-03-29T05:24:44.975Z,101023.19
2023-03-29T05:25:53.587Z,101017.88
2023-03-29T05:26:56.443Z,101029.34
2023-03-29T05:27:59.971Z,101017.88
2023-03-29T05:29:02.680Z,101024.94
2023-03-29T05:30:05.482Z,101024.03
2023-03-29T05:31:17.278Z,101018.72
2023-03-29T05:32:22.242Z,101019.63
2023-03-29T05:33:24.498Z,101013.44
2023-03-29T05:34:27.276Z,101016.94
2023-03-29T05:35:33.709Z,101014.31
2023-03-29T05:36:39.113Z,101009.91
2023-03-29T05:37:42.290Z,101005.53
2023-03-29T05:38:46.617Z,101006.38
2023-03-29T05:39:49.687Z,101009.03
2023-03-29T05:40:56.548Z,101008.13
2023-03-29T05:42:07.593Z,101014.31
2023-03-29T05:43:22.531Z,101003.75
2023-03-29T05:44:24.885Z,101008.13
2023-03-29T05:45:34.191Z,101004.59
2023-03-29T05:46:37.537Z,101005.47
2023-03-29T05:47:39.867Z,101005.47
2023-03-29T05:48:42.617Z,100997.53
2023-03-29T05:49:46.243Z,101005.47
2023-03-29T05:50:54.048Z,101001.91
2023-03-29T05:51:57.152Z,100997.50
2023-03-29T05:53:00.748Z,101001.94
2023-03-29T05:54:03.363Z,101001.03
2023-03-29T05:55:06.004Z,100992.19
2023-03-29T05:56:09.076Z,100994.84
2023-03-29T05:57:12.190Z,100993.97
2023-03-29T05:58:17.995Z,100990.44
2023-03-29T05:59:21.376Z,100994.00
2023-03-29T06:00:24.349Z,100989.59
2023-03-29T06:01:33.730Z,100986.06
2023-03-29T06:02:41.892Z,100986.91
2023-03-29T06:03:46.333Z,100991.31
2023-03-29T06:04:49.291Z,100989.53
2023-03-29T06:06:00.477Z,100985.13
2023-03-29T06:07:05.007Z,100984.22
2023-03-29T06:08:08.909Z,100981.53
2023-03-29T06:09:11.253Z,100980.59
2023-03-29T06:10:27.464Z,100975.25
2023-03-29T06:11:41.108Z,100980.59
2023-03-29T06:12:49.740Z,100985.91
2023-03-29T06:13:53.643Z,100989.44
2023-03-29T06:14:58.219Z,100984.09
2023-03-29T06:16:18.740Z,100989.38
2023-03-29T06:17:21.392Z,100987.59
2023-03-29T06:18:24.623Z,100984.00
2023-03-29T06:19:26.849Z,100997.19
2023-03-29T06:20:30.223Z,100990.09
2023-03-29T06:21:38.331Z,100990.81
2023-03-29T06:22:42.588Z,100989.91
2023-03-29T06:23:47.417Z,100988.16
2023-03-29T06:24:51.361Z,100982.75
2023-03-29T06:26:00.248Z,100981.81
2023-03-29T06:27:02.800Z,100979.13
2023-03-29T06:28:06.304Z,100981.72
2023-03-29T06:29:10.334Z,100982.53
2023-03-29T06:30:16.478Z,100982.41
2023-03-29T06:31:23.296Z,100988.63
2023-03-29T06:32:28.446Z,100979.69
2023-03-29T06:33:43.190Z,100977.84
2023-03-29T06:35:06.257Z,100987.47
2023-03-29T06:36:13.975Z,100982.22
2023-03-29T06:37:16.572Z,100979.50
2023-03-29T06:38:20.832Z,100983.00
2023-03-29T06:39:43.685Z,100981.94
2023-03-29T06:41:07.242Z,100981.06
2023-03-29T06:42:30.012Z,100987.25
2023-03-29T06:43:55.373Z,100972.91
2023-03-29T06:45:00.383Z,100980.72
2023-03-29T06:46:02.689Z,100978.91
2023-03-29T06:47:19.424Z,100981.69
2023-03-29T06:48:22.037Z,100978.00
2023-03-29T06:49:24.203Z,100984.03
2023-03-29T06:50:44.010Z,100983.16
2023-03-29T06:51:49.225Z,100981.38
2023-03-29T06:52:52.789Z,100981.19
2023-03-29T06:53:55.295Z,100982.91
2023-03-29T06:54:57.997Z,100973.78
2023-03-29T06:56:05.318Z,100977.22
2023-03-29T06:57:18.680Z,100980.59
2023-03-29T06:58:22.043Z,100985.13
2023-03-29T06:59:24.421Z,100979.72
2023-03-29T07:00:47.509Z,100976.78
2023-03-29T07:01:57.815Z,100978.47
2023-03-29T07:03:20.073Z,100975.59
2023-03-29T07:04:25.397Z,100979.16
2023-03-29T07:06:01.129Z,100972.84
2023-03-29T07:07:05.929Z,100979.81
2023-03-29T07:08:10.021Z,100978.81
2023-03-29T07:09:22.192Z,100967.94
2023-03-29T07:10:47.600Z,100971.63
2023-03-29T07:12:14.951Z,100976.31
2023-03-29T07:13:17.366Z,100977.28
2023-03-29T07:14:20.035Z,100978.00
2023-03-29T07:15:22.530Z,100980.53
2023-03-29T07:16:43.347Z,100982.44
2023-03-29T07:18:04.773Z,100975.06
2023-03-29T07:19:09.247Z,100988.13
2023-03-29T07:20:27.112Z,100986.09
2023-03-29T07:21:40.534Z,100983.19
2023-03-29T07:22:44.072Z,100975.13
2023-03-29T07:23:46.347Z,100973.31
2023-03-29T07:24:49.334Z,100968.78
2023-03-29T07:25:51.577Z,100975.63
2023-03-29T07:27:03.218Z,100971.13
2023-03-29T07:28:07.901Z,100966.34
2023-03-29T07:29:11.777Z,100969.75
2023-03-29T07:30:19.257Z,100961.81
2023-03-29T07:31:21.819Z,100957.09
2023-03-29T07:32:31.663Z,100957.78
2023-03-29T07:33:56.861Z,100964.75
2023-03-29T07:35:01.569Z,100972.47
2023-03-29T07:36:11.219Z,100964.25
2023-03-29T07:37:13.597Z,100972.72
2023-03-29T07:38:18.564Z,100964.03
2023-03-29T07:39:31.027Z,100974.16
2023-03-29T07:40:56.448Z,100965.72
2023-03-29T07:42:17.205Z,100968.94
2023-03-29T07:43:20.964Z,100963.44
2023-03-29T07:44:23.688Z,100968.59
2023-03-29T07:45:29.103Z,100965.09
2023-03-29T07:46:39.189Z,100972.94
2023-03-29T07:47:42.068Z,100971.81
2023-03-29T07:48:44.391Z,100980.81
2023-03-29T07:49:49.269Z,100970.06
2023-03-29T07:50:52.033Z,100976.25
2023-03-29T07:51:58.944Z,100972.41
2023-03-29T07:53:02.153Z,100972.56
2023-03-29T07:54:06.454Z,100965.78
2023-03-29T07:55:10.452Z,100969.09
2023-03-29T07:56:30.737Z,100966.06
2023-03-29T07:57:45.754Z,100966.09
2023-03-29T07:58:48.161Z,100975.56
2023-03-29T07:59:52.988Z,100966.53
2023-03-29T08:01:03.683Z,100966.94
2023-03-29T08:02:25.108Z,100965.31
2023-03-29T08:03:31.159Z,100971.63
2023-03-29T08:04:33.590Z,100972.72
2023-03-29T08:05:51.649Z,100973.06
2023-03-29T08:06:54.232Z,100970.06
2023-03-29T08:07:59.748Z,100972.09
2023-03-29T08:09:18.627Z,100975.44
2023-03-29T08:10:22.410Z,100980.03
2023-03-29T08:11:40.154Z,100982.81
2023-03-29T08:12:50.860Z,100987.75
2023-03-29T08:13:55.616Z,100976.47
2023-03-29T08:15:38.468Z,100980.72
2023-03-29T08:16:44.641Z,100980.53
2023-03-29T08:17:50.601Z,100988.41
2023-03-29T08:18:53.668Z,100983.09
2023-03-29T08:19:58.142Z,100989.19
2023-03-29T08:21:00.591Z,100976.72
2023-03-29T08:22:04.045Z,100985.00
2023-03-29T08:23:26.210Z,100988.78
2023-03-29T08:24:55.322Z,100984.00
2023-03-29T08:26:00.756Z,100983.09
2023-03-29T08:27:03.335Z,100975.81
2023-03-29T08:28:05.578Z,100970.09
2023-03-29T08:29:27.532Z,100974.00
2023-03-29T08:30:30.485Z,100971.69
2023-03-29T08:31:33.647Z,100957.22
2023-03-29T08:32:37.822Z,100972.16
2023-03-29T08:33:42.863Z,100967.91
2023-03-29T08:35:05.092Z,100963.47
2023-03-29T08:36:13.416Z,100960.50
2023-03-29T08:37:16.579Z,100961.00
2023-03-29T08:38:22.628Z,100963.84
2023-03-29T08:39:25.955Z,100964.75
2023-03-29T08:40:48.849Z,100964.56
2023-03-29T08:42:45.021Z,100960.53
2023-03-29T08:44:32.824Z,100960.84
2023-03-29T08:45:53.820Z,100952.75
2023-03-29T08:47:18.204Z,100960.25
2023-03-29T08:48:28.665Z,100947.63
2023-03-29T08:49:31.807Z,100957.25
2023-03-29T08:50:40.872Z,100952.56
2023-03-29T08:51:47.893Z,100950.94
2023-03-29T08:53:02.228Z,100950.25
2023-03-29T08:54:41.599Z,100952.78
2023-03-29T08:55:48.715Z,100965.25
2023-03-29T08:57:45.716Z,100944.81
2023-03-29T08:58:55.253Z,100954.84
2023-03-29T09:00:04.540Z,100946.03
2023-03-29T09:01:09.470Z,100951.28
2023-03-29T09:02:27.766Z,100949.59
2023-03-29T09:03:48.982Z,100942.97
2023-03-29T09:05:09.130Z,100939.41
2023-03-29T09:06:22.019Z,100934.53
2023-03-29T09:07:27.354Z,100933.44
2023-03-29T09:08:31.112Z,100930.19
2023-03-29T09:09:34.624Z,100936.78
2023-03-29T09:11:05.054Z,100934.84
2023-03-29T09:12:24.655Z,100933.56
2023-03-29T09:13:39.077Z,100935.22
2023-03-29T09:15:09.693Z,100929.84
2023-03-29T09:16:55.412Z,100935.59
2023-03-29T09:18:16.148Z,100915.44
2023-03-29T09:19:30.382Z,100927.97
2023-03-29T09:21:06.159Z,100916.97
2023-03-29T09:22:42.069Z,100919.28
2023-03-29T09:23:54.680Z,100921.31
2023-03-29T09:25:25.251Z,100917.09
2023-03-29T09:26:37.060Z,100911.03
2023-03-29T09:28:18.702Z,100915.22
2023-03-29T09:29:44.990Z,100911.09
2023-03-29T09:31:11.506Z,100909.91
2023-03-29T09:32:20.530Z,100917.47
2023-03-29T09:33:34.682Z,100912.97
2023-03-29T09:35:09.589Z,100906.53
2023-03-29T09:36:27.199Z,100906.22
2023-03-29T09:37:38.364Z,100913.81
2023-03-29T09:38:43.693Z,100909.28
2023-03-29T09:39:46.510Z,100915.66
2023-03-29T09:41:00.752Z,100911.34
2023-03-29T09:42:09.326Z,100912.84
2023-03-29T09:43:18.411Z,100910.44
2023-03-29T09:44:30.720Z,100915.66
2023-03-29T09:45:41.992Z,100911.66
2023-03-29T09:46:52.111Z,100907.94
2023-03-29T09:48:11.415Z,100905.97
2023-03-29T09:49:23.538Z,100911.09
2023-03-29T09:50:34.059Z,100905.28
2023-03-29T09:51:42.099Z,100911.97
2023-03-29T09:52:46.300Z,100898.44
2023-03-29T09:53:57.409Z,100908.13
2023-03-29T09:55:29.466Z,100906.66
2023-03-29T09:56:40.809Z,100905.97
2023-03-29T09:57:46.589Z,100904.16
2023-03-29T09:58:50.373Z,100908.97
2023-03-29T09:59:54.630Z,100910.00
2023-03-29T10:01:03.156Z,100907.19
2023-03-29T10:02:11.960Z,100907.44
2023-03-29T10:03:22.377Z,100909.19
2023-03-29T10:04:35.462Z,100914.56
2023-03-29T10:05:38.059Z,100905.06
2023-03-29T10:06:50.525Z,100904.56
2023-03-29T10:07:59.907Z,100912.81
2023-03-29T10:09:04.381Z,100907.69
2023-03-29T10:10:30.864Z,100920.41
2023-03-29T10:11:38.397Z,100907.75
2023-03-29T10:12:41.684Z,100911.00
2023-03-29T10:13:49.194Z,100906.47
2023-03-29T10:14:54.251Z,100914.47
2023-03-29T10:16:01.801Z,100913.66
2023-03-29T10:17:11.649Z,100907.28
2023-03-29T10:18:14.515Z,100910.75
2023-03-29T10:19:23.467Z,100905.47
2023-03-29T10:20:25.957Z,100901.34
2023-03-29T10:21:29.352Z,100893.94
2023-03-29T10:22:37.831Z,100896.94
2023-03-29T10:23:40.248Z,100893.09
2023-03-29T10:24:52.089Z,100892.44
2023-03-29T10:25:54.294Z,100892.31
2023-03-29T10:27:02.831Z,100890.72
2023-03-29T10:28:10.186Z,100893.59
2023-03-29T10:29:13.471Z,100889.03
2023-03-29T10:30:22.639Z,100896.44
2023-03-29T10:31:25.780Z,100896.22
2023-03-29T10:32:34.764Z,100892.97
2023-03-29T10:33:37.383Z,100899.00
2023-03-29T10:34:39.607Z,100894.75
2023-03-29T10:35:42.823Z,100897.78
2023-03-29T10:36:53.685Z,100895.50
2023-03-29T10:37:59.262Z,100893.44
2023-03-29T10:39:06.183Z,100900.25
2023-03-29T10:40:41.390Z,100900.19
2023-03-29T10:41:44.769Z,100891.75
2023-03-29T10:42:49.953Z,100895.75
2023-03-29T10:43:52.360Z,100879.28
2023-03-29T10:44:59.541Z,100882.53
2023-03-29T10:46:19.511Z,100882.06
2023-03-29T10:47:22.707Z,100880.34
2023-03-29T10:48:30.135Z,100874.59
2023-03-29T10:49:41.479Z,100873.78
2023-03-29T10:50:50.475Z,100880.09
2023-03-29T10:51:52.681Z,100871.97
2023-03-29T10:52:55.137Z,100867.06
2023-03-29T10:53:59.253Z,100866.41
2023-03-29T10:55:01.588Z,100875.81
2023-03-29T10:56:52.005Z,100868.03
2023-03-29T10:58:16.721Z,100873.69
2023-03-29T10:59:29.784Z,100864.81
2023-03-29T11:00:40.797Z,100861.03
2023-03-29T11:02:04.171Z,100862.31
2023-03-29T11:03:40.259Z,100863.63
2023-03-29T11:04:46.612Z,100866.63
2023-03-29T11:06:04.178Z,100866.09
2023-03-29T11:07:24.309Z,100863.56
2023-03-29T11:08:48.017Z,100862.75
2023-03-29T11:10:14.770Z,100856.13
2023-03-29T11:11:45.379Z,100861.97
2023-03-29T11:13:18.367Z,100858.81
2023-03-29T11:14:49.683Z,100866.09
2023-03-29T11:15:54.593Z,100860.22
2023-03-29T11:17:27.945Z,100848.28
2023-03-29T11:18:45.388Z,100850.00
2023-03-29T11:20:19.996Z,100857.19
2023-03-29T11:21:37.923Z,100859.63
2023-03-29T11:23:12.959Z,100847.41
2023-03-29T11:24:33.961Z,100845.16
2023-03-29T11:26:11.799Z,100844.31
2023-03-29T11:27:29.727Z,100845.28
2023-03-29T11:28:40.630Z,100845.34
2023-03-29T11:29:51.950Z,100832.72
2023-03-29T11:30:54.140Z,100834.28
2023-03-29T11:32:19.012Z,100832.53
2023-03-29T11:33:33.770Z,100829.91
2023-03-29T11:35:19.399Z,100829.38
2023-03-29T11:36:39.115Z,100825.75
2023-03-29T11:38:05.725Z,100828.00
2023-03-29T11:39:20.252Z,100829.22
2023-03-29T11:40:39.308Z,100825.69
2023-03-29T11:41:44.912Z,100821.59
2023-03-29T11:42:50.719Z,100812.00
2023-03-29T11:44:02.372Z,100812.31
2023-03-29T11:45:06.078Z,100822.03
2023-03-29T11:46:17.773Z,100819.59
2023-03-29T11:47:27.439Z,100819.03
2023-03-29T11:48:36.102Z,100815.28
2023-03-29T11:49:41.758Z,100815.59
2023-03-29T11:51:04.279Z,100813.13
2023-03-29T11:52:26.487Z,100817.25
2023-03-29T11:53:42.101Z,100816.88
2023-03-29T11:55:08.237Z,100807.34
2023-03-29T11:56:16.270Z,100807.34
2023-03-29T11:57:31.009Z,100806.41
2023-03-29T11:58:38.999Z,100813.66
2023-03-29T11:59:46.147Z,100808.13
2023-03-29T12:00:55.345Z,100806.06
2023-03-29T12:02:10.642Z,100802.06
2023-03-29T12:03:22.593Z,100808.25
2023-03-29T12:04:31.474Z,100806.16
2023-03-29T12:05:45.972Z,100806.38
2023-03-29T12:07:01.891Z,100800.69
2023-03-29T12:08:09.641Z,100799.22
2023-03-29T12:09:14.195Z,100801.34
2023-03-29T12:10:31.300Z,100796.28
2023-03-29T12:11:49.192Z,100794.03
2023-03-29T12:13:03.430Z,100790.16
2023-03-29T12:14:14.580Z,100789.66
2023-03-29T12:15:21.566Z,100787.97
2023-03-29T12:16:26.735Z,100791.75
2023-03-29T12:17:45.006Z,100787.19
2023-03-29T12:18:51.385Z,100790.22
2023-03-29T12:20:04.523Z,100793.63
2023-03-29T12:21:21.827Z,100790.75
2023-03-29T12:22:25.588Z,100789.53
2023-03-29T12:23:32.543Z,100789.06
2023-03-29T12:24:38.842Z,100784.72
2023-03-29T12:25:44.796Z,100791.22
2023-03-29T12:26:52.923Z,100787.50
2023-03-29T12:28:03.724Z,100790.41
2023-03-29T12:29:20.827Z,100793.91
2023-03-29T12:30:38.531Z,100795.25
2023-03-29T12:31:52.526Z,100791.47
2023-03-29T12:33:16.486Z,100787.34
2023-03-29T12:35:05.649Z,100789.53
2023-03-29T12:36:48.697Z,100782.03
2023-03-29T12:38:21.555Z,100782.13
2023-03-29T12:39:43.039Z,100783.19
2023-03-29T12:41:15.506Z,100779.44
2023-03-29T12:42:59.003Z,100779.09
2023-03-29T12:44:23.685Z,100784.56
2023-03-29T12:45:38.749Z,100783.44
2023-03-29T12:46:41.252Z,100776.97
2023-03-29T12:47:46.172Z,100781.69
2023-03-29T12:48:53.203Z,100779.75
2023-03-29T12:49:58.275Z,100777.06
2023-03-29T12:51:03.667Z,100776.66
2023-03-29T12:52:32.479Z,100773.81
2023-03-29T12:53:42.351Z,100762.91
2023-03-29T12:54:55.889Z,100779.63
2023-03-29T12:56:01.298Z,100779.56
2023-03-29T12:57:28.587Z,100784.97
2023-03-29T12:58:36.888Z,100776.16
2023-03-29T12:59:43.977Z,100773.16
2023-03-29T13:00:48.034Z,100769.44
2023-03-29T13:02:04.550Z,100779.81
2023-03-29T13:03:35.813Z,100775.50
2023-03-29T13:04:55.068Z,100775.63
2023-03-29T13:06:05.424Z,100781.41
2023-03-29T13:07:33.365Z,100785.75
2023-03-29T13:11:28.273Z,100780.78
2023-03-29T13:12:40.493Z,100775.38
2023-03-29T13:13:44.039Z,100760.81
2023-03-29T13:15:16.826Z,100763.31
2023-03-29T13:16:30.150Z,100755.91
2023-03-29T13:18:12.290Z,100754.19
2023-03-29T13:19:14.746Z,100759.59
2023-03-29T13:20:47.299Z,100756.97
2023-03-29T13:21:49.395Z,100755.38
2023-03-29T13:23:07.331Z,100751.44
2023-03-29T13:24:57.529Z,100752.50
2023-03-29T13:26:22.167Z,100756.00
2023-03-29T13:27:31.666Z,100744.22
2023-03-29T13:28:37.208Z,100746.50
2023-03-29T13:29:56.572Z,100746.34